Alma, Arkansas
Current Conditions -  °F | °C
As of 4:53 AM on Friday 28 Nov 2014 (Local Time) from KFSM Reporting Station
Clear Clear  
Wind Chill: 26°   Ceiling: Unl
Heat Index: 32°   Visibility: 10mi
Dew Point: 27°   Wind: 6mph
Humidity: 82%   Direction: 50°NE
Pressure: 30.3"   Gusts: NA
Location:  35.48°N, 94.22°W
Report Text: KFSM 281053Z 05005KT 10SM CLR 00/M03 A3030 RMK AO2 SLP262 T00001028
Loading
Personal Weather Stations






























Interactive Weather Map New forecast layout! Learn more

10-Day Weather Forecast

Advertisements
Track Severe Weather on mobile